sensor_id;sensor_type;location;lat;lon;timestamp;P1;durP1;ratioP1;P2;durP2;ratioP2
11151;SDS011;5630;49.342;10.802;2023-05-10T00:00:12;8.97;;;7.70;;
11151;SDS011;5630;49.342;10.802;2023-05-10T00:02:38;7.93;;;7.13;;
11151;SDS011;5630;49.342;10.802;2023-05-10T00:05:04;9.33;;;7.00;;
11151;SDS011;5630;49.342;10.802;2023-05-10T00:07:30;8.90;;;7.13;;
11151;SDS011;5630;49.342;10.802;2023-05-10T00:09:56;8.17;;;6.83;;
11151;SDS011;5630;49.342;10.802;2023-05-10T00:12:21;7.10;;;6.40;;
11151;SDS011;5630;49.342;10.802;2023-05-10T00:14:47;7.60;;;6.23;;
11151;SDS011;5630;49.342;10.802;2023-05-10T00:17:13;7.10;;;6.40;;
11151;SDS011;5630;49.342;10.802;2023-05-10T00:19:38;7.37;;;6.77;;
11151;SDS011;5630;49.342;10.802;2023-05-10T00:22:04;6.70;;;6.10;;
11151;SDS011;5630;49.342;10.802;2023-05-10T00:24:29;7.63;;;6.27;;
11151;SDS011;5630;49.342;10.802;2023-05-10T00:26:55;8.07;;;6.37;;
11151;SDS011;5630;49.342;10.802;2023-05-10T00:29:20;6.90;;;6.20;;
11151;SDS011;5630;49.342;10.802;2023-05-10T00:31:46;7.93;;;7.00;;
11151;SDS011;5630;49.342;10.802;2023-05-10T00:34:11;7.70;;;6.57;;
11151;SDS011;5630;49.342;10.802;2023-05-10T00:36:37;6.60;;;6.00;;
11151;SDS011;5630;49.342;10.802;2023-05-10T00:39:03;6.50;;;5.90;;
11151;SDS011;5630;49.342;10.802;2023-05-10T00:41:29;7.17;;;6.57;;
11151;SDS011;5630;49.342;10.802;2023-05-10T00:43:57;7.30;;;6.43;;
11151;SDS011;5630;49.342;10.802;2023-05-10T00:46:23;8.67;;;6.37;;
11151;SDS011;5630;49.342;10.802;2023-05-10T00:48:49;7.53;;;6.57;;
11151;SDS011;5630;49.342;10.802;2023-05-10T00:51:14;9.03;;;6.67;;
11151;SDS011;5630;49.342;10.802;2023-05-10T00:53:40;10.10;;;6.93;;
11151;SDS011;5630;49.342;10.802;2023-05-10T00:56:06;8.70;;;6.73;;
11151;SDS011;5630;49.342;10.802;2023-05-10T00:58:32;6.97;;;6.23;;
11151;SDS011;5630;49.342;10.802;2023-05-10T01:00:58;8.17;;;6.70;;
11151;SDS011;5630;49.342;10.802;2023-05-10T01:03:24;9.40;;;6.53;;
11151;SDS011;5630;49.342;10.802;2023-05-10T01:05:50;8.97;;;6.63;;
11151;SDS011;5630;49.342;10.802;2023-05-10T01:08:16;8.63;;;6.03;;
11151;SDS011;5630;49.342;10.802;2023-05-10T01:10:42;7.47;;;5.77;;
11151;SDS011;5630;49.342;10.802;2023-05-10T01:13:08;7.83;;;6.67;;
11151;SDS011;5630;49.342;10.802;2023-05-10T01:15:35;7.67;;;6.30;;
11151;SDS011;5630;49.342;10.802;2023-05-10T01:18:01;6.93;;;6.33;;
11151;SDS011;5630;49.342;10.802;2023-05-10T01:20:29;6.50;;;5.80;;
11151;SDS011;5630;49.342;10.802;2023-05-10T01:28:54;7.27;;;4.53;;
11151;SDS011;5630;49.342;10.802;2023-05-10T01:34:23;4.30;;;3.90;;
11151;SDS011;5630;49.342;10.802;2023-05-10T01:36:55;4.20;;;3.90;;
11151;SDS011;5630;49.342;10.802;2023-05-10T01:39:40;5.23;;;4.13;;
11151;SDS011;5630;49.342;10.802;2023-05-10T01:42:08;3.90;;;3.60;;
11151;SDS011;5630;49.342;10.802;2023-05-10T01:44:49;5.43;;;3.90;;
11151;SDS011;5630;49.342;10.802;2023-05-10T01:47:35;5.83;;;4.00;;
11151;SDS011;5630;49.342;10.802;2023-05-10T01:50:06;3.47;;;3.03;;
11151;SDS011;5630;49.342;10.802;2023-05-10T01:52:53;4.53;;;3.60;;
11151;SDS011;5630;49.342;10.802;2023-05-10T01:55:21;4.33;;;2.97;;
11151;SDS011;5630;49.342;10.802;2023-05-10T01:57:51;3.77;;;2.73;;
11151;SDS011;5630;49.342;10.802;2023-05-10T02:00:22;2.90;;;2.70;;
11151;SDS011;5630;49.342;10.802;2023-05-10T02:02:49;2.60;;;2.40;;
11151;SDS011;5630;49.342;10.802;2023-05-10T02:05:16;2.60;;;2.27;;
11151;SDS011;5630;49.342;10.802;2023-05-10T02:07:43;4.77;;;2.40;;
11151;SDS011;5630;49.342;10.802;2023-05-10T02:10:10;3.90;;;2.30;;
11151;SDS011;5630;49.342;10.802;2023-05-10T02:12:39;2.40;;;2.20;;
11151;SDS011;5630;49.342;10.802;2023-05-10T02:15:06;2.40;;;2.20;;
11151;SDS011;5630;49.342;10.802;2023-05-10T02:17:34;2.30;;;2.10;;
11151;SDS011;5630;49.342;10.802;2023-05-10T02:20:02;2.20;;;2.00;;
11151;SDS011;5630;49.342;10.802;2023-05-10T02:22:29;2.10;;;2.00;;
11151;SDS011;5630;49.342;10.802;2023-05-10T02:24:56;2.20;;;2.00;;
11151;SDS011;5630;49.342;10.802;2023-05-10T02:27:24;2.10;;;1.90;;
11151;SDS011;5630;49.342;10.802;2023-05-10T02:29:52;2.30;;;2.10;;
11151;SDS011;5630;49.342;10.802;2023-05-10T02:32:18;2.27;;;1.90;;
11151;SDS011;5630;49.342;10.802;2023-05-10T02:34:46;1.80;;;1.50;;
11151;SDS011;5630;49.342;10.802;2023-05-10T02:37:16;1.50;;;1.37;;
11151;SDS011;5630;49.342;10.802;2023-05-10T02:39:45;3.13;;;1.30;;
11151;SDS011;5630;49.342;10.802;2023-05-10T02:42:17;2.13;;;1.40;;
11151;SDS011;5630;49.342;10.802;2023-05-10T02:44:47;1.20;;;1.10;;
11151;SDS011;5630;49.342;10.802;2023-05-10T02:47:15;3.73;;;1.50;;
11151;SDS011;5630;49.342;10.802;2023-05-10T02:49:41;1.40;;;1.30;;
11151;SDS011;5630;49.342;10.802;2023-05-10T02:52:07;1.60;;;1.20;;
11151;SDS011;5630;49.342;10.802;2023-05-10T02:54:35;1.40;;;1.30;;
11151;SDS011;5630;49.342;10.802;2023-05-10T02:57:06;1.20;;;1.10;;
11151;SDS011;5630;49.342;10.802;2023-05-10T02:59:32;2.83;;;1.17;;
11151;SDS011;5630;49.342;10.802;2023-05-10T03:01:59;1.20;;;1.10;;
11151;SDS011;5630;49.342;10.802;2023-05-10T03:04:25;1.20;;;1.10;;
11151;SDS011;5630;49.342;10.802;2023-05-10T03:06:51;1.10;;;1.00;;
11151;SDS011;5630;49.342;10.802;2023-05-10T03:09:17;2.27;;;1.17;;
11151;SDS011;5630;49.342;10.802;2023-05-10T03:17:11;0.90;;;0.90;;
11151;SDS011;5630;49.342;10.802;2023-05-10T03:19:58;2.67;;;1.00;;
11151;SDS011;5630;49.342;10.802;2023-05-10T03:22:37;1.27;;;1.10;;
11151;SDS011;5630;49.342;10.802;2023-05-10T03:25:06;1.07;;;0.97;;
11151;SDS011;5630;49.342;10.802;2023-05-10T03:27:34;1.97;;;0.90;;
11151;SDS011;5630;49.342;10.802;2023-05-10T03:30:01;1.37;;;0.90;;
11151;SDS011;5630;49.342;10.802;2023-05-10T03:32:28;1.53;;;1.00;;
11151;SDS011;5630;49.342;10.802;2023-05-10T03:34:55;1.10;;;1.00;;
11151;SDS011;5630;49.342;10.802;2023-05-10T03:37:20;1.23;;;1.13;;
11151;SDS011;5630;49.342;10.802;2023-05-10T03:39:46;1.00;;;1.00;;
11151;SDS011;5630;49.342;10.802;2023-05-10T03:42:11;1.33;;;1.23;;
11151;SDS011;5630;49.342;10.802;2023-05-10T03:44:40;1.60;;;0.93;;
11151;SDS011;5630;49.342;10.802;2023-05-10T03:47:06;1.00;;;0.97;;
11151;SDS011;5630;49.342;10.802;2023-05-10T03:49:31;1.87;;;1.00;;
11151;SDS011;5630;49.342;10.802;2023-05-10T03:51:57;1.53;;;1.20;;
11151;SDS011;5630;49.342;10.802;2023-05-10T03:54:22;0.90;;;0.90;;
11151;SDS011;5630;49.342;10.802;2023-05-10T03:56:48;1.90;;;0.80;;
11151;SDS011;5630;49.342;10.802;2023-05-10T03:59:13;1.10;;;1.00;;
11151;SDS011;5630;49.342;10.802;2023-05-10T04:01:39;0.77;;;0.77;;
11151;SDS011;5630;49.342;10.802;2023-05-10T04:04:04;1.50;;;1.00;;
11151;SDS011;5630;49.342;10.802;2023-05-10T04:06:30;1.70;;;1.00;;
11151;SDS011;5630;49.342;10.802;2023-05-10T04:08:56;0.67;;;0.67;;
11151;SDS011;5630;49.342;10.802;2023-05-10T04:11:24;1.00;;;1.00;;
11151;SDS011;5630;49.342;10.802;2023-05-10T04:13:50;1.27;;;0.90;;
11151;SDS011;5630;49.342;10.802;2023-05-10T04:16:16;0.50;;;0.50;;
11151;SDS011;5630;49.342;10.802;2023-05-10T04:18:42;2.50;;;1.17;;
11151;SDS011;5630;49.342;10.802;2023-05-10T04:21:11;1.17;;;0.80;;
11151;SDS011;5630;49.342;10.802;2023-05-10T04:23:37;1.53;;;0.80;;
11151;SDS011;5630;49.342;10.802;2023-05-10T04:26:03;0.90;;;0.90;;
11151;SDS011;5630;49.342;10.802;2023-05-10T04:28:29;0.80;;;0.80;;
11151;SDS011;5630;49.342;10.802;2023-05-10T04:31:00;1.37;;;0.80;;
11151;SDS011;5630;49.342;10.802;2023-05-10T04:33:29;2.53;;;1.10;;
11151;SDS011;5630;49.342;10.802;2023-05-10T04:35:55;1.00;;;1.00;;
11151;SDS011;5630;49.342;10.802;2023-05-10T04:38:21;1.30;;;1.20;;
11151;SDS011;5630;49.342;10.802;2023-05-10T04:40:47;1.47;;;1.17;;
11151;SDS011;5630;49.342;10.802;2023-05-10T04:43:12;2.70;;;1.10;;
11151;SDS011;5630;49.342;10.802;2023-05-10T04:45:38;1.20;;;1.10;;
11151;SDS011;5630;49.342;10.802;2023-05-10T04:48:03;1.37;;;1.10;;
11151;SDS011;5630;49.342;10.802;2023-05-10T04:50:29;1.67;;;1.10;;
11151;SDS011;5630;49.342;10.802;2023-05-10T04:52:55;1.30;;;1.20;;
11151;SDS011;5630;49.342;10.802;2023-05-10T04:55:20;1.40;;;1.30;;
11151;SDS011;5630;49.342;10.802;2023-05-10T04:57:46;1.37;;;1.27;;
11151;SDS011;5630;49.342;10.802;2023-05-10T05:00:11;3.03;;;1.40;;
11151;SDS011;5630;49.342;10.802;2023-05-10T05:02:37;1.80;;;1.23;;
11151;SDS011;5630;49.342;10.802;2023-05-10T05:05:03;1.47;;;1.37;;
11151;SDS011;5630;49.342;10.802;2023-05-10T05:07:29;6.23;;;1.47;;
11151;SDS011;5630;49.342;10.802;2023-05-10T05:09:55;1.47;;;1.33;;
11151;SDS011;5630;49.342;10.802;2023-05-10T05:12:21;1.70;;;1.53;;
11151;SDS011;5630;49.342;10.802;2023-05-10T05:14:46;1.53;;;1.40;;
11151;SDS011;5630;49.342;10.802;2023-05-10T05:17:12;2.47;;;1.40;;
11151;SDS011;5630;49.342;10.802;2023-05-10T05:19:38;1.60;;;1.50;;
11151;SDS011;5630;49.342;10.802;2023-05-10T05:22:03;1.77;;;1.30;;
11151;SDS011;5630;49.342;10.802;2023-05-10T05:24:34;1.47;;;1.37;;
11151;SDS011;5630;49.342;10.802;2023-05-10T05:27:01;2.03;;;1.33;;
11151;SDS011;5630;49.342;10.802;2023-05-10T05:29:26;4.53;;;1.50;;
11151;SDS011;5630;49.342;10.802;2023-05-10T05:31:52;3.00;;;1.40;;
11151;SDS011;5630;49.342;10.802;2023-05-10T05:34:17;1.90;;;1.57;;
11151;SDS011;5630;49.342;10.802;2023-05-10T05:36:45;1.50;;;1.40;;
11151;SDS011;5630;49.342;10.802;2023-05-10T05:39:10;1.57;;;1.47;;
11151;SDS011;5630;49.342;10.802;2023-05-10T05:41:36;2.63;;;1.70;;
11151;SDS011;5630;49.342;10.802;2023-05-10T05:44:02;1.80;;;1.60;;
11151;SDS011;5630;49.342;10.802;2023-05-10T05:46:27;1.63;;;1.50;;
11151;SDS011;5630;49.342;10.802;2023-05-10T05:48:53;2.00;;;1.87;;
11151;SDS011;5630;49.342;10.802;2023-05-10T05:51:18;4.80;;;3.30;;
11151;SDS011;5630;49.342;10.802;2023-05-10T05:53:44;2.23;;;2.03;;
11151;SDS011;5630;49.342;10.802;2023-05-10T05:56:10;4.57;;;1.70;;
11151;SDS011;5630;49.342;10.802;2023-05-10T05:58:35;3.83;;;2.03;;
11151;SDS011;5630;49.342;10.802;2023-05-10T06:01:01;3.50;;;1.73;;
11151;SDS011;5630;49.342;10.802;2023-05-10T06:03:26;2.33;;;1.80;;
11151;SDS011;5630;49.342;10.802;2023-05-10T06:05:52;1.80;;;1.70;;
11151;SDS011;5630;49.342;10.802;2023-05-10T06:08:17;1.73;;;1.63;;
11151;SDS011;5630;49.342;10.802;2023-05-10T06:10:43;2.00;;;1.90;;
11151;SDS011;5630;49.342;10.802;2023-05-10T06:13:09;2.03;;;1.87;;
11151;SDS011;5630;49.342;10.802;2023-05-10T06:15:35;2.63;;;1.60;;
11151;SDS011;5630;49.342;10.802;2023-05-10T06:18:00;3.53;;;1.87;;
11151;SDS011;5630;49.342;10.802;2023-05-10T06:20:26;4.60;;;2.03;;
11151;SDS011;5630;49.342;10.802;2023-05-10T06:22:51;2.07;;;1.87;;
11151;SDS011;5630;49.342;10.802;2023-05-10T06:25:17;2.13;;;1.83;;
11151;SDS011;5630;49.342;10.802;2023-05-10T06:27:43;5.13;;;1.90;;
11151;SDS011;5630;49.342;10.802;2023-05-10T06:30:09;5.57;;;2.03;;
11151;SDS011;5630;49.342;10.802;2023-05-10T06:32:35;3.10;;;1.90;;
11151;SDS011;5630;49.342;10.802;2023-05-10T06:35:00;2.03;;;1.83;;
11151;SDS011;5630;49.342;10.802;2023-05-10T06:37:26;3.83;;;2.00;;
11151;SDS011;5630;49.342;10.802;2023-05-10T06:39:51;2.33;;;1.97;;
11151;SDS011;5630;49.342;10.802;2023-05-10T06:42:17;2.10;;;1.90;;
11151;SDS011;5630;49.342;10.802;2023-05-10T06:44:43;3.53;;;2.07;;
11151;SDS011;5630;49.342;10.802;2023-05-10T06:47:08;2.03;;;1.93;;
11151;SDS011;5630;49.342;10.802;2023-05-10T06:49:34;2.30;;;2.10;;
11151;SDS011;5630;49.342;10.802;2023-05-10T06:52:00;3.40;;;1.90;;
11151;SDS011;5630;49.342;10.802;2023-05-10T06:54:25;2.53;;;2.20;;
11151;SDS011;5630;49.342;10.802;2023-05-10T06:56:51;2.40;;;2.10;;
11151;SDS011;5630;49.342;10.802;2023-05-10T06:59:17;5.33;;;3.77;;
11151;SDS011;5630;49.342;10.802;2023-05-10T07:01:44;12.07;;;8.23;;
11151;SDS011;5630;49.342;10.802;2023-05-10T07:04:09;10.03;;;5.63;;
11151;SDS011;5630;49.342;10.802;2023-05-10T07:06:35;4.93;;;3.27;;
11151;SDS011;5630;49.342;10.802;2023-05-10T07:09:00;6.30;;;2.40;;
11151;SDS011;5630;49.342;10.802;2023-05-10T07:11:26;6.83;;;3.00;;
11151;SDS011;5630;49.342;10.802;2023-05-10T07:13:52;15.57;;;5.07;;
11151;SDS011;5630;49.342;10.802;2023-05-10T07:16:18;12.43;;;4.23;;
11151;SDS011;5630;49.342;10.802;2023-05-10T07:18:44;2.03;;;1.83;;
11151;SDS011;5630;49.342;10.802;2023-05-10T07:21:09;6.80;;;2.53;;
11151;SDS011;5630;49.342;10.802;2023-05-10T07:23:35;2.90;;;1.97;;
11151;SDS011;5630;49.342;10.802;2023-05-10T07:26:00;3.33;;;2.13;;
11151;SDS011;5630;49.342;10.802;2023-05-10T07:28:27;3.10;;;2.07;;
11151;SDS011;5630;49.342;10.802;2023-05-10T07:30:52;4.10;;;2.40;;
11151;SDS011;5630;49.342;10.802;2023-05-10T07:33:18;5.03;;;2.30;;
11151;SDS011;5630;49.342;10.802;2023-05-10T07:35:44;5.70;;;2.30;;
11151;SDS011;5630;49.342;10.802;2023-05-10T07:38:09;2.77;;;2.47;;
11151;SDS011;5630;49.342;10.802;2023-05-10T07:40:38;3.87;;;2.40;;
11151;SDS011;5630;49.342;10.802;2023-05-10T07:43:04;2.40;;;2.20;;
11151;SDS011;5630;49.342;10.802;2023-05-10T07:45:29;3.93;;;2.50;;
11151;SDS011;5630;49.342;10.802;2023-05-10T07:47:55;2.40;;;2.20;;
11151;SDS011;5630;49.342;10.802;2023-05-10T07:50:20;2.70;;;2.50;;
11151;SDS011;5630;49.342;10.802;2023-05-10T07:52:46;5.37;;;2.57;;
11151;SDS011;5630;49.342;10.802;2023-05-10T07:55:13;3.17;;;2.27;;
11151;SDS011;5630;49.342;10.802;2023-05-10T07:57:38;3.20;;;2.40;;
11151;SDS011;5630;49.342;10.802;2023-05-10T08:00:04;3.33;;;2.67;;
11151;SDS011;5630;49.342;10.802;2023-05-10T08:02:30;3.93;;;2.47;;
11151;SDS011;5630;49.342;10.802;2023-05-10T08:04:57;2.73;;;2.53;;
11151;SDS011;5630;49.342;10.802;2023-05-10T08:07:24;2.70;;;2.20;;
11151;SDS011;5630;49.342;10.802;2023-05-10T08:09:49;4.80;;;2.70;;
11151;SDS011;5630;49.342;10.802;2023-05-10T08:12:15;4.80;;;2.90;;
11151;SDS011;5630;49.342;10.802;2023-05-10T08:14:41;4.70;;;2.30;;
11151;SDS011;5630;49.342;10.802;2023-05-10T08:17:06;2.97;;;2.73;;
11151;SDS011;5630;49.342;10.802;2023-05-10T08:19:32;3.60;;;2.60;;
11151;SDS011;5630;49.342;10.802;2023-05-10T08:21:57;4.57;;;3.33;;
11151;SDS011;5630;49.342;10.802;2023-05-10T08:24:23;9.07;;;5.07;;
11151;SDS011;5630;49.342;10.802;2023-05-10T08:26:48;5.07;;;3.77;;
11151;SDS011;5630;49.342;10.802;2023-05-10T08:29:14;7.93;;;2.50;;
11151;SDS011;5630;49.342;10.802;2023-05-10T08:31:40;2.30;;;2.10;;
11151;SDS011;5630;49.342;10.802;2023-05-10T08:34:05;4.00;;;2.03;;
11151;SDS011;5630;49.342;10.802;2023-05-10T08:36:31;2.63;;;2.00;;
11151;SDS011;5630;49.342;10.802;2023-05-10T08:38:57;3.27;;;2.23;;
11151;SDS011;5630;49.342;10.802;2023-05-10T08:41:23;4.43;;;2.00;;
11151;SDS011;5630;49.342;10.802;2023-05-10T08:43:50;2.70;;;1.70;;
11151;SDS011;5630;49.342;10.802;2023-05-10T08:46:20;2.40;;;1.90;;
11151;SDS011;5630;49.342;10.802;2023-05-10T08:48:47;1.77;;;1.63;;
11151;SDS011;5630;49.342;10.802;2023-05-10T08:51:15;2.40;;;1.80;;
11151;SDS011;5630;49.342;10.802;2023-05-10T08:53:43;6.57;;;2.10;;
11151;SDS011;5630;49.342;10.802;2023-05-10T08:56:10;4.27;;;1.80;;
11151;SDS011;5630;49.342;10.802;2023-05-10T08:58:36;5.83;;;1.90;;
11151;SDS011;5630;49.342;10.802;2023-05-10T09:01:02;2.57;;;1.87;;
11151;SDS011;5630;49.342;10.802;2023-05-10T09:03:28;2.60;;;1.40;;
11151;SDS011;5630;49.342;10.802;2023-05-10T09:05:55;2.87;;;1.80;;
11151;SDS011;5630;49.342;10.802;2023-05-10T09:08:21;4.90;;;1.67;;
11151;SDS011;5630;49.342;10.802;2023-05-10T09:10:50;3.57;;;1.50;;
11151;SDS011;5630;49.342;10.802;2023-05-10T09:13:18;5.17;;;1.67;;
11151;SDS011;5630;49.342;10.802;2023-05-10T09:15:47;2.67;;;1.70;;
11151;SDS011;5630;49.342;10.802;2023-05-10T09:18:13;4.70;;;1.53;;
11151;SDS011;5630;49.342;10.802;2023-05-10T09:20:39;5.77;;;1.97;;
11151;SDS011;5630;49.342;10.802;2023-05-10T09:23:05;7.57;;;2.30;;
11151;SDS011;5630;49.342;10.802;2023-05-10T09:25:31;3.20;;;1.73;;
11151;SDS011;5630;49.342;10.802;2023-05-10T09:27:58;3.33;;;1.80;;
11151;SDS011;5630;49.342;10.802;2023-05-10T09:30:28;2.63;;;1.60;;
11151;SDS011;5630;49.342;10.802;2023-05-10T09:32:56;5.27;;;1.90;;
11151;SDS011;5630;49.342;10.802;2023-05-10T09:35:23;4.73;;;2.10;;
11151;SDS011;5630;49.342;10.802;2023-05-10T09:37:52;5.87;;;1.73;;
11151;SDS011;5630;49.342;10.802;2023-05-10T09:40:22;3.20;;;1.80;;
11151;SDS011;5630;49.342;10.802;2023-05-10T09:43:02;5.30;;;1.80;;
11151;SDS011;5630;49.342;10.802;2023-05-10T09:45:31;3.97;;;1.70;;
11151;SDS011;5630;49.342;10.802;2023-05-10T09:47:58;2.63;;;1.87;;
11151;SDS011;5630;49.342;10.802;2023-05-10T09:50:25;2.37;;;2.00;;
11151;SDS011;5630;49.342;10.802;2023-05-10T09:52:53;4.90;;;2.30;;
11151;SDS011;5630;49.342;10.802;2023-05-10T09:55:20;2.73;;;1.80;;
11151;SDS011;5630;49.342;10.802;2023-05-10T09:57:48;4.97;;;2.43;;
11151;SDS011;5630;49.342;10.802;2023-05-10T10:00:18;8.80;;;7.30;;
11151;SDS011;5630;49.342;10.802;2023-05-10T10:02:48;6.10;;;3.30;;
11151;SDS011;5630;49.342;10.802;2023-05-10T10:05:20;3.20;;;2.20;;
11151;SDS011;5630;49.342;10.802;2023-05-10T10:07:46;5.53;;;2.00;;
11151;SDS011;5630;49.342;10.802;2023-05-10T10:10:14;4.43;;;2.20;;
11151;SDS011;5630;49.342;10.802;2023-05-10T10:12:40;2.77;;;2.10;;
11151;SDS011;5630;49.342;10.802;2023-05-10T10:15:06;2.83;;;2.20;;
11151;SDS011;5630;49.342;10.802;2023-05-10T10:17:33;3.03;;;2.63;;
11151;SDS011;5630;49.342;10.802;2023-05-10T10:20:02;3.23;;;2.30;;
11151;SDS011;5630;49.342;10.802;2023-05-10T10:22:28;3.13;;;2.50;;
11151;SDS011;5630;49.342;10.802;2023-05-10T10:24:53;3.53;;;2.63;;
11151;SDS011;5630;49.342;10.802;2023-05-10T10:27:24;2.53;;;2.20;;
11151;SDS011;5630;49.342;10.802;2023-05-10T10:35:34;3.43;;;2.10;;
11151;SDS011;5630;49.342;10.802;2023-05-10T10:38:00;4.43;;;2.13;;
11151;SDS011;5630;49.342;10.802;2023-05-10T10:40:27;3.80;;;2.10;;
11151;SDS011;5630;49.342;10.802;2023-05-10T10:42:54;2.47;;;2.03;;
11151;SDS011;5630;49.342;10.802;2023-05-10T10:45:21;2.33;;;2.13;;
11151;SDS011;5630;49.342;10.802;2023-05-10T10:47:47;2.33;;;2.03;;
11151;SDS011;5630;49.342;10.802;2023-05-10T10:50:14;3.70;;;2.07;;
11151;SDS011;5630;49.342;10.802;2023-05-10T10:52:43;3.33;;;2.10;;
11151;SDS011;5630;49.342;10.802;2023-05-10T10:55:10;2.97;;;1.87;;
11151;SDS011;5630;49.342;10.802;2023-05-10T11:03:11;5.57;;;1.80;;
11151;SDS011;5630;49.342;10.802;2023-05-10T11:05:50;5.20;;;2.10;;
11151;SDS011;5630;49.342;10.802;2023-05-10T11:08:29;3.20;;;1.60;;
11151;SDS011;5630;49.342;10.802;2023-05-10T11:16:17;2.00;;;1.80;;
11151;SDS011;5630;49.342;10.802;2023-05-10T11:21:31;6.53;;;1.67;;
11151;SDS011;5630;49.342;10.802;2023-05-10T11:23:58;1.60;;;1.30;;
11151;SDS011;5630;49.342;10.802;2023-05-10T11:26:29;1.43;;;1.17;;
11151;SDS011;5630;49.342;10.802;2023-05-10T11:28:56;1.17;;;1.07;;
11151;SDS011;5630;49.342;10.802;2023-05-10T11:31:23;1.10;;;1.00;;
11151;SDS011;5630;49.342;10.802;2023-05-10T11:33:52;1.93;;;1.30;;
11151;SDS011;5630;49.342;10.802;2023-05-10T11:36:34;11.47;;;2.03;;
11151;SDS011;5630;49.342;10.802;2023-05-10T11:39:00;3.07;;;1.40;;
11151;SDS011;5630;49.342;10.802;2023-05-10T11:41:27;1.37;;;1.20;;
11151;SDS011;5630;49.342;10.802;2023-05-10T11:43:54;2.03;;;1.60;;
11151;SDS011;5630;49.342;10.802;2023-05-10T11:46:22;1.93;;;1.20;;
11151;SDS011;5630;49.342;10.802;2023-05-10T11:48:52;1.23;;;1.00;;
11151;SDS011;5630;49.342;10.802;2023-05-10T11:51:20;1.53;;;1.30;;
11151;SDS011;5630;49.342;10.802;2023-05-10T11:53:47;1.33;;;1.23;;
11151;SDS011;5630;49.342;10.802;2023-05-10T11:56:13;2.80;;;1.40;;
11151;SDS011;5630;49.342;10.802;2023-05-10T11:58:39;1.63;;;1.20;;
11151;SDS011;5630;49.342;10.802;2023-05-10T12:01:07;1.30;;;1.20;;
11151;SDS011;5630;49.342;10.802;2023-05-10T12:03:34;1.30;;;1.20;;
11151;SDS011;5630;49.342;10.802;2023-05-10T12:05:59;2.40;;;1.30;;
11151;SDS011;5630;49.342;10.802;2023-05-10T12:08:26;1.50;;;1.40;;
11151;SDS011;5630;49.342;10.802;2023-05-10T12:10:53;2.10;;;1.20;;
11151;SDS011;5630;49.342;10.802;2023-05-10T12:13:29;4.40;;;1.67;;
11151;SDS011;5630;49.342;10.802;2023-05-10T12:15:57;3.87;;;1.70;;
11151;SDS011;5630;49.342;10.802;2023-05-10T12:18:23;2.70;;;1.70;;
11151;SDS011;5630;49.342;10.802;2023-05-10T12:20:52;3.70;;;1.70;;
11151;SDS011;5630;49.342;10.802;2023-05-10T12:23:21;1.80;;;1.53;;
11151;SDS011;5630;49.342;10.802;2023-05-10T12:25:46;4.03;;;2.20;;
11151;SDS011;5630;49.342;10.802;2023-05-10T12:28:12;3.27;;;2.10;;
11151;SDS011;5630;49.342;10.802;2023-05-10T12:30:38;5.63;;;2.23;;
11151;SDS011;5630;49.342;10.802;2023-05-10T12:33:08;6.40;;;2.30;;
11151;SDS011;5630;49.342;10.802;2023-05-10T12:35:49;2.83;;;2.00;;
11151;SDS011;5630;49.342;10.802;2023-05-10T12:38:29;2.80;;;1.90;;
11151;SDS011;5630;49.342;10.802;2023-05-10T12:40:57;5.30;;;2.07;;
11151;SDS011;5630;49.342;10.802;2023-05-10T12:43:24;7.57;;;2.20;;
11151;SDS011;5630;49.342;10.802;2023-05-10T12:45:49;2.07;;;1.87;;
11151;SDS011;5630;49.342;10.802;2023-05-10T12:48:15;2.37;;;1.93;;
11151;SDS011;5630;49.342;10.802;2023-05-10T12:50:41;1.80;;;1.70;;
11151;SDS011;5630;49.342;10.802;2023-05-10T12:53:06;4.13;;;1.70;;
11151;SDS011;5630;49.342;10.802;2023-05-10T12:55:32;1.70;;;1.60;;
11151;SDS011;5630;49.342;10.802;2023-05-10T12:57:57;2.00;;;1.80;;
11151;SDS011;5630;49.342;10.802;2023-05-10T13:00:23;2.67;;;1.90;;
11151;SDS011;5630;49.342;10.802;2023-05-10T13:02:49;2.37;;;1.70;;
11151;SDS011;5630;49.342;10.802;2023-05-10T13:05:14;3.10;;;1.40;;
11151;SDS011;5630;49.342;10.802;2023-05-10T13:07:40;3.37;;;1.80;;
11151;SDS011;5630;49.342;10.802;2023-05-10T13:10:06;2.03;;;1.60;;
11151;SDS011;5630;49.342;10.802;2023-05-10T13:12:31;3.20;;;1.40;;
11151;SDS011;5630;49.342;10.802;2023-05-10T13:14:57;3.47;;;1.40;;
11151;SDS011;5630;49.342;10.802;2023-05-10T13:17:24;2.00;;;1.07;;
11151;SDS011;5630;49.342;10.802;2023-05-10T13:19:50;0.87;;;0.87;;
11151;SDS011;5630;49.342;10.802;2023-05-10T13:22:16;1.10;;;1.00;;
11151;SDS011;5630;49.342;10.802;2023-05-10T13:24:42;1.97;;;1.10;;
11151;SDS011;5630;49.342;10.802;2023-05-10T13:27:07;3.03;;;1.13;;
11151;SDS011;5630;49.342;10.802;2023-05-10T13:29:33;2.83;;;1.13;;
11151;SDS011;5630;49.342;10.802;2023-05-10T13:31:59;1.10;;;1.00;;
11151;SDS011;5630;49.342;10.802;2023-05-10T13:34:25;1.20;;;1.10;;
11151;SDS011;5630;49.342;10.802;2023-05-10T13:36:50;2.30;;;1.30;;
11151;SDS011;5630;49.342;10.802;2023-05-10T13:39:17;1.67;;;1.20;;
11151;SDS011;5630;49.342;10.802;2023-05-10T13:41:43;1.53;;;1.40;;
11151;SDS011;5630;49.342;10.802;2023-05-10T13:44:09;1.53;;;1.30;;
11151;SDS011;5630;49.342;10.802;2023-05-10T13:46:37;5.33;;;1.33;;
11151;SDS011;5630;49.342;10.802;2023-05-10T13:49:03;1.30;;;1.20;;
11151;SDS011;5630;49.342;10.802;2023-05-10T13:51:29;1.80;;;1.50;;
11151;SDS011;5630;49.342;10.802;2023-05-10T13:53:54;3.57;;;1.50;;
11151;SDS011;5630;49.342;10.802;2023-05-10T13:56:20;1.50;;;1.40;;
11151;SDS011;5630;49.342;10.802;2023-05-10T13:58:45;1.53;;;1.37;;
11151;SDS011;5630;49.342;10.802;2023-05-10T14:01:11;3.17;;;1.50;;
11151;SDS011;5630;49.342;10.802;2023-05-10T14:03:37;3.30;;;1.40;;
11151;SDS011;5630;49.342;10.802;2023-05-10T14:06:02;2.30;;;1.20;;
11151;SDS011;5630;49.342;10.802;2023-05-10T14:08:28;1.97;;;1.20;;
11151;SDS011;5630;49.342;10.802;2023-05-10T14:10:53;2.70;;;1.30;;
11151;SDS011;5630;49.342;10.802;2023-05-10T14:13:21;2.20;;;1.40;;
11151;SDS011;5630;49.342;10.802;2023-05-10T14:15:46;1.43;;;1.30;;
11151;SDS011;5630;49.342;10.802;2023-05-10T14:18:12;1.40;;;1.30;;
11151;SDS011;5630;49.342;10.802;2023-05-10T14:20:38;3.90;;;1.40;;
11151;SDS011;5630;49.342;10.802;2023-05-10T14:23:03;2.00;;;1.53;;
11151;SDS011;5630;49.342;10.802;2023-05-10T14:25:29;2.07;;;1.47;;
11151;SDS011;5630;49.342;10.802;2023-05-10T14:27:54;1.43;;;1.33;;
11151;SDS011;5630;49.342;10.802;2023-05-10T14:30:20;3.57;;;2.83;;
11151;SDS011;5630;49.342;10.802;2023-05-10T14:32:45;2.50;;;2.13;;
11151;SDS011;5630;49.342;10.802;2023-05-10T14:35:11;3.93;;;1.70;;
11151;SDS011;5630;49.342;10.802;2023-05-10T14:37:37;2.50;;;1.50;;
11151;SDS011;5630;49.342;10.802;2023-05-10T14:40:03;1.87;;;1.50;;
11151;SDS011;5630;49.342;10.802;2023-05-10T14:42:29;6.03;;;1.80;;
11151;SDS011;5630;49.342;10.802;2023-05-10T14:44:56;2.00;;;1.30;;
11151;SDS011;5630;49.342;10.802;2023-05-10T14:47:21;1.33;;;1.23;;
11151;SDS011;5630;49.342;10.802;2023-05-10T14:49:47;1.67;;;1.33;;
11151;SDS011;5630;49.342;10.802;2023-05-10T14:52:12;1.60;;;1.40;;
11151;SDS011;5630;49.342;10.802;2023-05-10T14:54:39;1.60;;;1.50;;
11151;SDS011;5630;49.342;10.802;2023-05-10T14:57:06;4.07;;;1.80;;
11151;SDS011;5630;49.342;10.802;2023-05-10T14:59:31;4.23;;;2.27;;
11151;SDS011;5630;49.342;10.802;2023-05-10T15:01:57;2.27;;;2.03;;
11151;SDS011;5630;49.342;10.802;2023-05-10T15:04:23;4.23;;;2.30;;
11151;SDS011;5630;49.342;10.802;2023-05-10T15:06:49;2.00;;;1.67;;
11151;SDS011;5630;49.342;10.802;2023-05-10T15:09:14;3.10;;;1.60;;
11151;SDS011;5630;49.342;10.802;2023-05-10T15:11:41;3.83;;;1.87;;
11151;SDS011;5630;49.342;10.802;2023-05-10T15:14:07;2.87;;;1.83;;
11151;SDS011;5630;49.342;10.802;2023-05-10T15:16:32;2.93;;;1.83;;
11151;SDS011;5630;49.342;10.802;2023-05-10T15:18:58;2.43;;;1.90;;